Time;durP1;ratioP1;P1;durP2;ratioP2;P2;SDS_P1;SDS_P2;PMS_P1;PMS_P2;Temp;Humidity;BMP_temperature;BMP_pressure;BME280_temperature;BME280_humidity;BME280_pressure;Samples;Min_cycle;Max_cycle;Signal;HPM_P1;HPM_P2
2021/12/13 00:02:31;;;;;;;29.52;11.85;;;;;;;1.38;84.63;94885.25;4803798;29;20106;-62
2021/12/13 00:05:27;;;;;;;42.65;14.82;;;;;;;1.40;84.55;94878.38;4804345;29;20043;-62
2021/12/13 00:08:00;;;;;;;39.45;13.38;;;;;;;1.45;84.79;94880.09;4839048;29;20751;-61
2021/12/13 00:10:35;;;;;;;42.33;14.13;;;;;;;1.52;84.26;94877.63;4839804;29;20050;-61
2021/12/13 00:13:10;;;;;;;41.10;13.60;;;;;;;1.52;84.40;94880.34;4854128;29;20427;-62
2021/12/13 00:15:58;;;;;;;30.95;12.40;;;;;;;1.50;84.06;94869.06;4838633;29;20623;-62
2021/12/13 00:18:29;;;;;;;27.27;11.70;;;;;;;1.56;83.85;94865.00;4839657;29;20084;-61
2021/12/13 00:21:07;;;;;;;32.42;12.55;;;;;;;1.37;84.66;94868.25;4839686;29;20065;-62
2021/12/13 00:23:58;;;;;;;24.85;11.73;;;;;;;1.31;84.95;94880.38;4837738;29;20046;-63
2021/12/13 00:26:31;;;;;;;22.40;10.80;;;;;;;1.38;84.96;94871.72;4821746;29;20053;-61
2021/12/13 00:28:59;;;;;;;22.33;10.73;;;;;;;1.47;84.96;94875.16;4839423;29;20448;-62
2021/12/13 00:31:46;;;;;;;20.52;10.68;;;;;;;1.53;84.46;94873.00;4838001;29;20054;-62
2021/12/13 00:34:33;;;;;;;22.20;10.40;;;;;;;1.63;84.49;94869.09;4837775;29;20056;-61
2021/12/13 00:37:18;;;;;;;31.63;13.40;;;;;;;1.66;84.50;94863.78;4839606;29;20058;-62
2021/12/13 00:39:53;;;;;;;43.63;16.27;;;;;;;1.66;84.20;94871.13;4838396;29;21598;-62
2021/12/13 00:42:23;;;;;;;37.95;14.75;;;;;;;1.71;84.11;94865.50;4838999;29;20076;-61
2021/12/13 00:44:53;;;;;;;31.50;13.27;;;;;;;1.67;84.65;94878.09;4839123;29;20054;-62
2021/12/13 00:47:26;;;;;;;21.75;10.40;;;;;;;1.69;83.92;94875.84;4821743;29;20054;-61
2021/12/13 00:50:00;;;;;;;17.17;8.85;;;;;;;1.53;84.68;94870.28;4813326;29;20185;-62
2021/12/13 00:52:30;;;;;;;17.90;9.07;;;;;;;1.29;86.00;94874.53;4839508;29;20101;-61
2021/12/13 00:54:59;;;;;;;16.63;8.80;;;;;;;1.29;86.21;94879.13;4839208;29;20053;-62
2021/12/13 00:57:29;;;;;;;26.80;12.35;;;;;;;1.42;85.81;94877.25;4852847;29;20061;-61
2021/12/13 01:00:14;;;;;;;30.30;14.00;;;;;;;1.48;85.93;94870.53;4839225;29;20060;-62
2021/12/13 01:02:47;;;;;;;17.85;9.07;;;;;;;1.49;85.78;94878.31;4837033;29;20482;-62
2021/12/13 01:05:31;;;;;;;15.73;8.47;;;;;;;1.56;85.72;94880.47;4838017;29;20046;-62
2021/12/13 01:08:32;;;;;;;22.00;11.23;;;;;;;1.69;85.10;94881.28;4838988;29;20058;-62
2021/12/13 01:11:32;;;;;;;16.15;7.93;;;;;;;1.28;85.83;94880.25;4837025;29;20089;-61
2021/12/13 01:14:21;;;;;;;16.00;7.78;;;;;;;1.28;86.63;94867.53;4852006;29;20304;-61
2021/12/13 01:19:54;;;;;;;18.63;8.90;;;;;;;1.39;86.42;94873.31;4838783;29;20065;-61
2021/12/13 01:22:56;;;;;;;15.05;7.57;;;;;;;1.19;87.49;94883.06;4826362;29;20482;-61
2021/12/13 01:25:46;;;;;;;14.07;6.75;;;;;;;1.22;87.34;94881.59;4838457;29;20352;-62
2021/12/13 01:28:44;;;;;;;17.30;8.68;;;;;;;1.24;87.18;94884.75;4838530;29;20061;-61
2021/12/13 01:31:34;;;;;;;18.27;8.65;;;;;;;1.21;87.51;94886.22;4838545;29;20054;-61
2021/12/13 01:34:03;;;;;;;17.80;8.90;;;;;;;1.10;88.29;94893.13;4838619;29;20054;-62
2021/12/13 01:36:47;;;;;;;21.90;9.70;;;;;;;1.28;87.77;94891.06;4838366;29;20052;-61
2021/12/13 01:39:22;;;;;;;17.42;8.68;;;;;;;1.33;87.30;94890.88;4838629;29;20046;-62
2021/12/13 01:41:59;;;;;;;16.98;7.85;;;;;;;1.19;87.87;94889.25;4838924;29;20054;-62
2021/12/13 01:44:30;;;;;;;16.27;8.25;;;;;;;1.27;88.01;94889.47;4838615;29;20042;-62
2021/12/13 01:47:13;;;;;;;18.27;8.57;;;;;;;1.31;88.03;94888.50;4838548;29;20054;-62
2021/12/13 01:49:47;;;;;;;12.05;5.93;;;;;;;1.30;87.49;94889.63;4837560;29;22542;-62
2021/12/13 01:52:29;;;;;;;11.73;5.88;;;;;;;1.31;87.83;94887.69;4838800;29;20111;-61
2021/12/13 01:54:59;;;;;;;15.75;7.25;;;;;;;1.28;87.84;94889.16;4838638;29;20054;-62
2021/12/13 01:57:49;;;;;;;19.98;9.35;;;;;;;1.38;87.59;94887.97;4837881;29;20052;-61
2021/12/13 02:01:08;;;;;;;15.43;7.40;;;;;;;1.42;87.15;94888.09;4838316;29;20049;-61
2021/12/13 02:03:23;;;;;;;11.25;5.63;;;;;;;1.45;87.03;94890.91;4841126;29;20042;-61
2021/12/13 02:05:50;;;;;;;12.85;7.25;;;;;;;1.57;86.79;94888.25;4841890;29;20046;-61
2021/12/13 02:08:24;;;;;;;10.68;5.15;;;;;;;1.52;86.59;94884.97;4841541;29;20494;-62
2021/12/13 02:10:55;;;;;;;9.30;4.47;;;;;;;1.29;87.21;94889.94;4841880;29;20057;-61
2021/12/13 02:13:26;;;;;;;10.57;5.53;;;;;;;1.30;87.91;94881.50;4841662;29;20049;-61
2021/12/13 02:18:45;;;;;;;12.23;5.90;;;;;;;1.45;86.89;94890.91;4839854;29;20121;-61
2021/12/13 02:21:25;;;;;;;11.05;5.43;;;;;;;1.28;87.71;94891.06;4841593;29;20050;-61
2021/12/13 02:23:58;;;;;;;10.65;5.05;;;;;;;1.38;87.45;94893.38;4855760;29;20054;-62
2021/12/13 02:26:26;;;;;;;9.27;4.40;;;;;;;1.26;87.58;94887.91;4841352;29;20050;-62
2021/12/13 02:29:03;;;;;;;10.48;5.10;;;;;;;1.23;88.24;94891.25;4841402;29;20054;-62
2021/12/13 02:31:35;;;;;;;13.88;7.45;;;;;;;0.91;89.58;94886.28;4841465;29;20052;-61
2021/12/13 02:34:13;;;;;;;43.30;19.73;;;;;;;1.13;89.26;94887.88;4841363;29;20053;-62
2021/12/13 02:36:51;;;;;;;17.27;8.45;;;;;;;1.30;88.30;94880.72;4839835;29;20141;-61
2021/12/13 02:39:23;;;;;;;15.57;7.90;;;;;;;1.41;87.66;94890.00;4841466;29;20414;-61
2021/12/13 02:41:51;;;;;;;15.18;7.13;;;;;;;1.50;87.10;94884.50;4841521;29;20400;-62
2021/12/13 02:44:29;;;;;;;14.77;6.82;;;;;;;1.53;86.89;94891.94;4841313;29;20052;-61
2021/12/13 02:46:59;;;;;;;14.70;6.53;;;;;;;1.52;86.88;94880.34;4841339;29;20492;-62
2021/12/13 02:49:26;;;;;;;13.30;6.38;;;;;;;1.49;87.15;94883.72;4840855;29;20058;-61
2021/12/13 02:52:01;;;;;;;13.63;6.10;;;;;;;1.37;87.33;94884.47;4840986;29;20053;-61
2021/12/13 02:54:37;;;;;;;10.40;5.10;;;;;;;1.27;87.83;94878.66;4855072;29;20061;-62
2021/12/13 02:57:16;;;;;;;7.70;3.80;;;;;;;1.33;88.44;94880.06;4840289;29;20121;-61
2021/12/13 02:59:52;;;;;;;6.80;3.22;;;;;;;1.19;88.88;94873.03;4840147;29;20720;-62
2021/12/13 03:02:25;;;;;;;6.93;2.90;;;;;;;1.36;88.35;94869.34;4840719;29;20049;-61
2021/12/13 03:04:56;;;;;;;6.67;2.90;;;;;;;1.50;88.11;94862.88;4840987;29;20054;-62
2021/12/13 03:07:31;;;;;;;9.77;4.70;;;;;;;1.55;87.56;94868.84;4839541;29;20196;-62
2021/12/13 03:10:03;;;;;;;10.98;5.40;;;;;;;1.64;87.18;94862.56;4840863;29;20054;-62
2021/12/13 03:12:30;;;;;;;11.50;6.30;;;;;;;1.51;86.53;94856.31;4821765;29;20482;-62
2021/12/13 03:15:01;;;;;;;12.85;6.35;;;;;;;1.20;87.92;94861.06;4813265;29;20047;-61
2021/12/13 03:17:34;;;;;;;11.73;6.10;;;;;;;1.25;88.26;94851.16;4804599;29;20087;-61
2021/12/13 03:20:13;;;;;;;12.63;6.20;;;;;;;1.42;88.14;94855.63;4804385;29;20192;-62
2021/12/13 03:23:17;;;;;;;13.27;6.90;;;;;;;1.38;87.57;94859.00;4803918;29;20047;-61
2021/12/13 03:26:14;;;;;;;9.93;5.03;;;;;;;1.23;88.48;94856.94;4803459;29;21502;-62
2021/12/13 03:28:56;;;;;;;8.73;4.60;;;;;;;1.31;87.80;94855.25;4793137;29;20944;-62
2021/12/13 03:31:25;;;;;;;8.20;3.90;;;;;;;1.36;88.13;94855.03;4803949;29;20066;-62
2021/12/13 03:33:58;;;;;;;7.47;3.55;;;;;;;1.47;87.87;94864.31;4804238;29;20058;-61
2021/12/13 03:37:22;;;;;;;7.30;3.47;;;;;;;1.51;87.37;94861.72;4804059;29;20050;-61
2021/12/13 03:39:53;;;;;;;8.73;4.07;;;;;;;1.50;87.50;94865.56;4782524;29;20215;-61
2021/12/13 03:42:26;;;;;;;11.63;5.40;;;;;;;1.54;87.41;94872.66;4782966;29;20123;-61
2021/12/13 03:44:57;;;;;;;11.63;5.20;;;;;;;1.54;86.90;94869.97;4794409;29;20497;-61
2021/12/13 03:47:38;;;;;;;13.55;5.90;;;;;;;1.53;87.17;94873.00;4803670;29;20047;-61
2021/12/13 03:50:14;;;;;;;15.02;7.18;;;;;;;1.39;86.69;94862.50;4816396;29;20416;-61
2021/12/13 03:52:44;;;;;;;15.70;7.45;;;;;;;0.91;88.61;94864.66;4838320;29;21790;-62
2021/12/13 03:55:15;;;;;;;12.45;6.30;;;;;;;0.94;89.61;94865.91;4839621;29;20052;-61
2021/12/13 03:57:46;;;;;;;12.60;6.23;;;;;;;0.99;89.29;94869.22;4840386;29;20106;-61
2021/12/13 04:00:18;;;;;;;16.38;7.95;;;;;;;1.03;89.32;94869.34;4839690;29;20057;-62
2021/12/13 04:02:46;;;;;;;14.30;6.82;;;;;;;1.15;89.10;94863.22;4854211;29;20482;-61
2021/12/13 04:05:18;;;;;;;18.00;8.52;;;;;;;1.27;88.61;94867.84;4839517;29;20080;-61
2021/12/13 04:07:48;;;;;;;18.67;8.35;;;;;;;1.15;88.67;94868.63;4840329;29;20464;-62
2021/12/13 04:10:23;;;;;;;17.43;8.20;;;;;;;1.22;88.95;94866.16;4839582;29;20054;-61
2021/12/13 04:12:53;;;;;;;15.93;7.40;;;;;;;1.31;88.49;94869.56;4853616;29;20064;-62
2021/12/13 04:15:48;;;;;;;17.13;7.57;;;;;;;1.38;88.19;94871.72;4839481;29;20073;-62
2021/12/13 04:18:39;;;;;;;16.30;7.07;;;;;;;1.37;88.01;94870.94;4813779;29;20685;-61
2021/12/13 04:21:08;;;;;;;13.65;6.32;;;;;;;1.44;88.05;94872.31;4805521;29;20511;-62
2021/12/13 04:23:36;;;;;;;13.50;6.97;;;;;;;1.50;87.84;94870.97;4802645;29;20898;-62
2021/12/13 04:26:07;;;;;;;19.98;10.63;;;;;;;1.55;87.58;94868.84;4802896;29;20501;-61
2021/12/13 04:28:40;;;;;;;16.33;8.35;;;;;;;1.28;88.46;94872.94;4802412;29;21603;-61
2021/12/13 04:31:10;;;;;;;13.02;6.40;;;;;;;1.18;88.78;94874.13;4802518;29;20067;-59
2021/12/13 04:33:45;;;;;;;13.10;6.93;;;;;;;1.24;88.82;94873.94;4810551;29;20183;-61
2021/12/13 04:36:23;;;;;;;18.73;8.53;;;;;;;1.33;88.81;94878.16;4802497;29;20063;-61
2021/12/13 04:38:57;;;;;;;17.08;8.88;;;;;;;1.19;88.55;94874.94;4802908;29;20046;-62
2021/12/13 04:41:33;;;;;;;17.30;8.35;;;;;;;1.10;89.09;94879.63;4802769;29;20054;-61
2021/12/13 04:44:31;;;;;;;16.58;7.95;;;;;;;1.19;88.77;94878.44;4802781;29;20050;-62
2021/12/13 04:47:08;;;;;;;20.20;9.13;;;;;;;1.19;89.24;94867.59;4790869;29;20742;-62
2021/12/13 04:49:42;;;;;;;19.97;8.63;;;;;;;1.33;88.66;94878.16;4807609;29;20952;-61
2021/12/13 04:52:14;;;;;;;17.52;8.43;;;;;;;1.45;88.12;94868.47;4838427;29;20139;-61
2021/12/13 04:54:46;;;;;;;18.63;8.40;;;;;;;1.44;88.30;94873.09;4853408;29;20046;-61
2021/12/13 04:57:14;;;;;;;15.32;7.78;;;;;;;1.52;87.63;94868.72;4838385;29;20058;-62
2021/12/13 04:59:41;;;;;;;15.88;7.72;;;;;;;1.57;87.82;94877.44;4839577;29;20057;-62
2021/12/13 05:02:10;;;;;;;15.47;7.50;;;;;;;1.62;87.26;94883.75;4838346;29;20054;-60
2021/12/13 05:04:37;;;;;;;13.43;6.75;;;;;;;1.65;87.31;94877.66;4839238;29;20046;-62
2021/12/13 05:07:05;;;;;;;18.55;8.55;;;;;;;1.59;87.13;94875.19;4838941;29;20049;-63
2021/12/13 05:09:34;;;;;;;18.60;8.10;;;;;;;1.48;87.76;94875.94;4838669;29;20077;-62
2021/12/13 05:12:13;;;;;;;22.73;8.57;;;;;;;1.46;88.13;94880.88;4838899;29;20076;-62
2021/12/13 05:14:45;;;;;;;17.63;7.90;;;;;;;1.59;87.89;94882.50;4838317;29;20058;-62
2021/12/13 05:17:17;;;;;;;14.75;6.78;;;;;;;1.61;87.85;94877.56;4821206;29;20054;-61
2021/12/13 05:19:49;;;;;;;14.50;6.70;;;;;;;1.57;87.79;94874.72;4811455;29;20173;-62
2021/12/13 05:22:18;;;;;;;27.30;9.85;;;;;;;1.58;87.86;94881.69;4820962;29;20056;-61
2021/12/13 05:24:54;;;;;;;14.15;6.57;;;;;;;1.45;87.74;94884.69;4820816;29;20051;-62
2021/12/13 05:27:32;;;;;;;11.83;5.73;;;;;;;1.43;88.84;94884.25;4820321;29;20059;-61
2021/12/13 05:30:16;;;;;;;17.17;9.05;;;;;;;1.47;88.72;94883.25;4820750;29;20056;-62
2021/12/13 05:32:56;;;;;;;14.60;7.82;;;;;;;1.54;88.59;94882.72;4820127;29;20066;-62
2021/12/13 05:35:34;;;;;;;16.95;7.90;;;;;;;1.45;89.08;94890.09;4819078;29;20076;-61
2021/12/13 05:38:06;;;;;;;17.10;9.57;;;;;;;1.52;89.44;94899.28;4822970;29;20057;-61
2021/12/13 05:40:39;;;;;;;15.43;8.00;;;;;;;1.60;88.97;94887.56;4822060;29;20043;-62
2021/12/13 05:43:20;;;;;;;16.48;8.02;;;;;;;1.62;88.88;94887.25;4837734;29;20059;-62
2021/12/13 05:45:57;;;;;;;18.17;8.07;;;;;;;1.56;89.49;94900.19;4823305;29;20810;-61
2021/12/13 05:48:44;;;;;;;14.23;8.40;;;;;;;1.57;89.53;94895.56;4823666;29;20047;-61
2021/12/13 05:51:32;;;;;;;16.85;8.05;;;;;;;1.40;90.48;94899.22;4838159;29;20056;-61
2021/12/13 05:54:13;;;;;;;19.10;8.20;;;;;;;1.23;91.05;94899.38;4842326;29;20068;-62
2021/12/13 05:57:05;;;;;;;15.77;8.15;;;;;;;1.07;91.52;94891.91;4839814;29;20550;-61
2021/12/13 05:59:38;;;;;;;17.45;8.73;;;;;;;1.11;92.17;94900.13;4842245;29;20392;-61
2021/12/13 06:02:17;;;;;;;16.05;8.77;;;;;;;1.26;92.00;94887.91;4841883;29;20500;-62
2021/12/13 06:04:54;;;;;;;16.25;8.10;;;;;;;1.28;91.92;94894.56;4841417;29;20716;-62
2021/12/13 06:07:22;;;;;;;19.23;7.97;;;;;;;1.26;92.18;94910.31;4841654;29;20464;-62
2021/12/13 06:10:01;;;;;;;21.50;10.77;;;;;;;1.27;92.21;94898.41;4840692;29;20054;-62
2021/12/13 06:12:46;;;;;;;20.15;9.30;;;;;;;1.12;92.96;94897.09;4841781;29;20054;-61
2021/12/13 06:15:15;;;;;;;26.90;10.85;;;;;;;1.11;93.63;94892.81;4841160;29;20076;-61
2021/12/13 06:17:52;;;;;;;24.70;11.73;;;;;;;1.18;93.54;94892.28;4842138;29;20049;-61
2021/12/13 06:20:57;;;;;;;18.77;9.00;;;;;;;1.14;93.86;94894.84;4841376;29;20046;-61
2021/12/13 06:23:29;;;;;;;18.80;8.13;;;;;;;1.02;93.80;94891.28;4841258;29;20054;-63
2021/12/13 06:26:04;;;;;;;23.85;11.23;;;;;;;0.75;94.92;94891.50;4841475;29;20053;-64
2021/12/13 06:28:44;;;;;;;21.90;9.90;;;;;;;0.77;95.63;94883.06;4839977;29;20054;-63
2021/12/13 06:31:17;;;;;;;20.83;9.32;;;;;;;0.76;95.76;94893.06;4840879;29;20046;-63
2021/12/13 06:34:06;;;;;;;20.53;9.67;;;;;;;0.72;95.89;94892.13;4841871;29;20058;-62
2021/12/13 06:36:39;;;;;;;19.75;8.82;;;;;;;0.72;96.10;94900.25;4841242;29;20046;-61
2021/12/13 06:39:11;;;;;;;27.83;9.32;;;;;;;0.72;96.42;94900.25;4841400;29;20046;-62
2021/12/13 06:41:40;;;;;;;23.52;9.65;;;;;;;0.72;96.49;94896.75;4840778;29;21522;-61
2021/12/13 06:44:21;;;;;;;24.50;10.38;;;;;;;0.69;96.49;94900.91;4841313;29;20045;-61
2021/12/13 06:46:53;;;;;;;26.97;12.33;;;;;;;0.66;96.95;94896.16;4840827;29;20042;-61
2021/12/13 06:49:35;;;;;;;28.95;12.57;;;;;;;0.77;97.15;94901.97;4840257;29;20054;-61
2021/12/13 06:52:08;;;;;;;26.98;11.52;;;;;;;0.72;96.77;94913.75;4841248;29;20042;-61
2021/12/13 06:55:04;;;;;;;32.42;13.40;;;;;;;0.73;96.60;94909.16;4840349;29;20709;-61
2021/12/13 06:57:38;;;;;;;31.85;14.05;;;;;;;0.75;97.02;94909.63;4838420;29;20076;-61
2021/12/13 07:00:20;;;;;;;32.73;14.50;;;;;;;0.79;96.59;94911.34;4840995;29;20447;-62
2021/12/13 07:02:54;;;;;;;32.40;15.55;;;;;;;0.86;96.70;94913.50;4840491;29;20582;-61
2021/12/13 07:05:34;;;;;;;31.25;12.82;;;;;;;0.92;96.30;94914.88;4840491;29;20050;-61
2021/12/13 07:08:06;;;;;;;24.70;9.50;;;;;;;1.07;95.92;94908.13;4841463;29;20062;-62
2021/12/13 07:10:38;;;;;;;22.00;8.80;;;;;;;1.11;95.19;94908.25;4840228;29;20919;-62
2021/12/13 07:13:09;;;;;;;21.00;10.10;;;;;;;1.22;94.74;94911.34;4833898;29;20049;-62
2021/12/13 07:15:49;;;;;;;27.05;10.98;;;;;;;1.25;94.18;94916.06;4816956;29;20949;-62
2021/12/13 07:18:29;;;;;;;29.10;11.88;;;;;;;1.29;94.20;94917.78;4804066;29;20046;-62
2021/12/13 07:21:09;;;;;;;38.92;13.00;;;;;;;1.33;94.35;94928.75;4804555;29;20057;-62
2021/12/13 07:23:52;;;;;;;34.95;11.85;;;;;;;1.40;94.22;94910.06;4803187;29;20741;-62
2021/12/13 07:26:39;;;;;;;32.73;11.53;;;;;;;1.58;94.31;94927.69;4803407;29;20058;-62
2021/12/13 07:29:28;;;;;;;41.70;13.00;;;;;;;1.63;93.62;94934.03;4803888;29;20398;-62
2021/12/13 07:32:10;;;;;;;44.40;12.20;;;;;;;1.60;93.08;94933.56;4803410;29;20838;-62
2021/12/13 07:34:51;;;;;;;36.20;11.73;;;;;;;1.27;94.59;94941.66;4803441;29;20188;-62
2021/12/13 07:37:52;;;;;;;30.45;10.70;;;;;;;1.32;95.30;94936.03;4803405;29;20119;-62
2021/12/13 07:40:21;;;;;;;32.83;11.13;;;;;;;1.52;95.20;94937.13;4803416;29;20182;-62
2021/12/13 07:42:56;;;;;;;31.38;11.57;;;;;;;1.70;94.42;94936.97;4818286;29;20065;-62
2021/12/13 07:45:30;;;;;;;34.42;12.13;;;;;;;1.86;94.16;94937.16;4803638;29;20054;-62
2021/12/13 07:48:03;;;;;;;39.40;13.02;;;;;;;1.92;93.19;94941.22;4804526;29;20059;-62
2021/12/13 07:50:30;;;;;;;32.53;11.50;;;;;;;1.78;93.02;94936.88;4821735;29;20060;-61
2021/12/13 07:53:01;;;;;;;44.37;16.03;;;;;;;1.91;92.93;94936.91;4840577;29;20057;-61
2021/12/13 07:55:30;;;;;;;54.72;16.20;;;;;;;1.91;92.29;94945.03;4839863;29;20060;-61
2021/12/13 07:58:02;;;;;;;45.72;15.73;;;;;;;2.09;92.55;94953.75;4840087;29;20054;-61
2021/12/13 08:00:40;;;;;;;38.47;15.20;;;;;;;2.17;91.94;94961.00;4838775;29;20458;-60
2021/12/13 08:03:15;;;;;;;38.95;13.38;;;;;;;2.04;91.65;94949.38;4839957;29;20456;-60
2021/12/13 08:05:48;;;;;;;45.33;14.13;;;;;;;1.66;94.33;94950.38;4839011;29;20416;-61
2021/12/13 08:08:21;;;;;;;32.97;11.82;;;;;;;2.06;93.53;94952.53;4839529;29;20053;-60
2021/12/13 08:10:51;;;;;;;25.70;10.48;;;;;;;1.82;92.95;94955.97;4840238;29;20060;-59
2021/12/13 08:13:25;;;;;;;30.10;11.18;;;;;;;1.90;93.45;94949.66;4839204;29;20680;-61
2021/12/13 08:16:05;;;;;;;29.45;10.48;;;;;;;2.03;92.63;94958.59;4803744;29;20046;-61
2021/12/13 08:18:41;;;;;;;26.73;9.87;;;;;;;2.06;93.21;94957.94;4802372;29;21001;-61
2021/12/13 08:21:18;;;;;;;35.13;11.80;;;;;;;2.07;92.91;94956.81;4802942;29;20059;-60
2021/12/13 08:23:48;;;;;;;31.08;11.55;;;;;;;1.63;93.70;94953.78;4803385;29;20065;-61
2021/12/13 08:26:27;;;;;;;32.08;12.93;;;;;;;1.54;95.37;94958.47;4802368;29;20055;-62
2021/12/13 08:28:57;;;;;;;34.08;14.20;;;;;;;1.78;95.17;94961.25;4803112;29;20046;-62
2021/12/13 08:31:31;;;;;;;44.20;15.13;;;;;;;2.05;94.46;94969.09;4802373;29;20206;-62
2021/12/13 08:34:03;;;;;;;36.33;14.32;;;;;;;2.21;93.90;94967.31;4803130;29;20047;-62
2021/12/13 08:36:34;;;;;;;41.92;14.77;;;;;;;2.24;93.64;94971.28;4816972;29;20496;-62
2021/12/13 08:39:07;;;;;;;36.40;13.93;;;;;;;2.37;92.59;94970.16;4803514;29;20055;-62
2021/12/13 08:41:36;;;;;;;41.35;14.43;;;;;;;2.58;91.36;94960.03;4802101;29;20844;-62
2021/12/13 08:44:09;;;;;;;71.07;21.70;;;;;;;2.80;91.11;94964.19;4803306;29;20063;-63
2021/12/13 08:46:51;;;;;;;44.97;13.98;;;;;;;2.46;90.46;94972.78;4802159;29;21403;-62
2021/12/13 08:49:24;;;;;;;33.42;11.98;;;;;;;2.52;91.31;94982.28;4816791;29;20054;-62
2021/12/13 08:52:16;;;;;;;27.80;11.35;;;;;;;2.65;89.79;94978.44;4839406;29;20514;-62
2021/12/13 08:55:10;;;;;;;31.38;12.48;;;;;;;2.48;90.66;94978.66;4835618;29;21430;-62
2021/12/13 08:58:11;;;;;;;31.77;12.33;;;;;;;2.39;90.96;94982.28;4836850;29;20904;-62
2021/12/13 09:00:53;;;;;;;31.45;12.40;;;;;;;2.44;91.37;94980.47;4838542;29;20744;-62
2021/12/13 09:03:26;;;;;;;32.60;13.73;;;;;;;2.69;90.68;94968.50;4838407;29;20068;-62
2021/12/13 09:05:56;;;;;;;33.78;13.30;;;;;;;2.72;90.32;94969.75;4839033;29;20045;-62
2021/12/13 09:08:42;;;;;;;28.50;12.13;;;;;;;3.19;90.00;94969.22;4838481;29;20360;-62
2021/12/13 09:11:15;;;;;;;30.40;12.40;;;;;;;3.40;88.60;94969.88;4838389;29;20057;-62
2021/12/13 09:14:08;;;;;;;29.63;12.30;;;;;;;3.76;87.95;94970.06;4822207;29;20047;-62
2021/12/13 09:17:09;;;;;;;27.67;10.93;;;;;;;3.82;86.35;94967.91;4811221;29;20721;-62
2021/12/13 09:19:42;;;;;;;26.95;10.30;;;;;;;3.32;87.34;94972.69;4820324;29;20055;-62
2021/12/13 09:22:17;;;;;;;27.20;11.40;;;;;;;3.43;87.42;94965.66;4820735;29;20488;-62
2021/12/13 09:24:47;;;;;;;25.33;10.27;;;;;;;3.54;86.23;94961.34;4820995;29;20059;-62
2021/12/13 09:27:24;;;;;;;25.35;10.45;;;;;;;3.85;87.24;94967.22;4819955;29;20051;-63
2021/12/13 09:29:59;;;;;;;26.50;10.85;;;;;;;4.30;85.75;94968.78;4820824;29;20085;-62
2021/12/13 09:32:42;;;;;;;25.60;10.18;;;;;;;4.31;82.70;94968.44;4819936;29;20176;-62
2021/12/13 09:35:36;;;;;;;24.55;10.70;;;;;;;3.92;85.14;94970.91;4819069;29;20057;-62
2021/12/13 09:38:23;;;;;;;22.97;10.27;;;;;;;4.06;84.58;94962.34;4820989;29;20049;-62
2021/12/13 09:40:59;;;;;;;108.20;49.22;;;;;;;4.11;84.78;94969.47;4820125;29;20089;-62
2021/12/13 09:43:35;;;;;;;38.05;16.77;;;;;;;4.30;83.85;94974.22;4821414;29;20076;-62
2021/12/13 09:46:03;;;;;;;34.60;16.08;;;;;;;4.49;83.82;94973.53;4820739;29;20047;-62
2021/12/13 09:48:41;;;;;;;29.65;13.20;;;;;;;4.58;82.93;94969.47;4820305;29;20050;-63
2021/12/13 09:51:15;;;;;;;28.50;13.50;;;;;;;4.58;82.40;94960.53;4834364;29;20069;-64
2021/12/13 09:53:42;;;;;;;28.52;13.63;;;;;;;4.68;82.25;94970.09;4838888;29;20409;-63
2021/12/13 09:56:13;;;;;;;29.40;12.50;;;;;;;4.68;82.15;94970.09;4838218;29;20419;-63
2021/12/13 09:58:49;;;;;;;27.17;10.98;;;;;;;4.86;82.06;94965.88;4838947;29;20041;-62
2021/12/13 10:01:31;;;;;;;31.00;12.63;;;;;;;4.80;80.74;94959.13;4838330;29;20046;-62
2021/12/13 10:04:12;;;;;;;32.47;13.57;;;;;;;5.02;80.88;94959.63;4852960;29;20042;-63
2021/12/13 10:06:46;;;;;;;25.27;11.20;;;;;;;4.55;81.48;94966.69;4837877;29;20312;-63
2021/12/13 10:09:21;;;;;;;24.23;11.88;;;;;;;4.24;83.61;94956.59;4838460;29;20064;-62
2021/12/13 10:11:55;;;;;;;21.88;9.80;;;;;;;4.15;84.12;94952.13;4838916;29;20057;-62
2021/12/13 10:14:27;;;;;;;20.95;9.43;;;;;;;4.09;83.82;94948.06;4811311;29;20416;-62
2021/12/13 10:16:56;;;;;;;19.63;8.63;;;;;;;3.99;84.65;94951.31;4815328;29;20046;-62
2021/12/13 10:19:37;;;;;;;15.85;7.43;;;;;;;4.39;84.14;94944.94;4820028;29;20061;-62
2021/12/13 10:22:08;;;;;;;18.73;7.93;;;;;;;4.45;83.04;94946.25;4820669;29;20060;-62
2021/12/13 10:24:50;;;;;;;17.60;7.97;;;;;;;4.68;83.04;94943.69;4822421;29;21565;-62
2021/12/13 10:27:19;;;;;;;18.80;8.98;;;;;;;4.92;82.24;94939.19;4836106;29;20046;-62
2021/12/13 10:29:50;;;;;;;20.70;9.43;;;;;;;5.09;81.87;94932.56;4823606;29;20138;-62
2021/12/13 10:32:24;;;;;;;26.83;10.65;;;;;;;5.09;81.98;94927.94;4822972;29;20066;-62
2021/12/13 10:34:57;;;;;;;29.33;12.13;;;;;;;5.08;81.34;94926.34;4823702;29;20054;-62
2021/12/13 10:37:30;;;;;;;26.23;12.02;;;;;;;4.55;82.20;94932.16;4822661;29;20050;-62
2021/12/13 10:40:12;;;;;;;30.55;12.48;;;;;;;4.71;84.16;94931.31;4823528;29;20594;-62
2021/12/13 10:42:46;;;;;;;40.83;18.63;;;;;;;4.97;82.86;94926.13;4822601;29;20317;-62
2021/12/13 10:45:19;;;;;;;32.30;12.80;;;;;;;5.08;81.93;94925.56;4822516;29;20181;-62
2021/12/13 10:47:49;;;;;;;26.10;11.75;;;;;;;5.44;81.10;94927.09;4823397;29;20061;-62
2021/12/13 10:50:22;;;;;;;28.77;12.00;;;;;;;5.36;81.54;94919.94;4830449;29;20086;-62
2021/12/13 10:52:53;;;;;;;27.60;12.02;;;;;;;5.47;80.58;94925.59;4841522;29;20072;-62
2021/12/13 10:55:44;;;;;;;27.87;12.23;;;;;;;4.81;83.76;94914.50;4841148;29;20160;-62
2021/12/13 10:58:19;;;;;;;41.70;14.00;;;;;;;4.89;83.95;94916.22;4840612;29;20050;-62
2021/12/13 11:00:51;;;;;;;38.53;13.65;;;;;;;5.19;84.20;94913.78;4841395;29;20062;-62
2021/12/13 11:03:21;;;;;;;37.10;13.93;;;;;;;5.50;82.28;94917.50;4840836;29;20050;-63
2021/12/13 11:05:55;;;;;;;47.78;15.63;;;;;;;5.38;82.80;94918.44;4841378;29;20058;-62
2021/12/13 11:08:24;;;;;;;39.13;13.53;;;;;;;5.28;81.87;94908.09;4840602;29;20488;-62
2021/12/13 11:11:02;;;;;;;31.30;10.95;;;;;;;5.61;81.70;94904.09;4841463;29;20045;-62
2021/12/13 11:13:36;;;;;;;30.92;11.70;;;;;;;5.79;81.02;94905.25;4840793;29;20053;-62
2021/12/13 11:16:14;;;;;;;33.55;12.10;;;;;;;6.05;80.10;94900.28;4841245;29;20068;-62
2021/12/13 11:18:42;;;;;;;37.72;13.32;;;;;;;5.97;80.40;94899.34;4840418;29;21679;-62
2021/12/13 11:21:14;;;;;;;38.57;12.70;;;;;;;6.11;79.87;94893.38;4840978;29;20510;-62
2021/12/13 11:23:41;;;;;;;36.88;13.07;;;;;;;6.34;78.46;94899.63;4841279;29;20045;-62
2021/12/13 11:26:11;;;;;;;35.00;11.65;;;;;;;6.36;78.78;94897.31;4839097;29;20050;-60
2021/12/13 11:28:40;;;;;;;32.83;12.52;;;;;;;6.16;79.47;94893.09;4841085;29;20054;-62
2021/12/13 11:31:30;;;;;;;32.75;12.80;;;;;;;6.25;79.22;94901.78;4840742;29;20053;-62
2021/12/13 11:34:04;;;;;;;36.90;12.80;;;;;;;5.56;81.22;94897.00;4839541;29;20058;-62
2021/12/13 11:36:41;;;;;;;35.45;12.60;;;;;;;5.97;81.20;94891.97;4840058;29;20053;-62
2021/12/13 11:39:45;;;;;;;35.72;12.65;;;;;;;5.22;82.46;94904.09;4840399;29;20045;-60
2021/12/13 11:42:40;;;;;;;36.55;12.43;;;;;;;5.68;82.64;94895.28;4811305;29;20509;-62
2021/12/13 11:45:26;;;;;;;35.08;12.43;;;;;;;5.53;82.38;94889.56;4821245;29;20046;-57
2021/12/13 11:48:23;;;;;;;38.40;13.37;;;;;;;5.89;82.34;94894.91;4822577;29;20050;-62
2021/12/13 11:51:20;;;;;;;26.67;10.73;;;;;;;5.35;83.44;94891.13;4833221;29;20050;-62
2021/12/13 11:54:21;;;;;;;33.13;11.13;;;;;;;5.79;82.49;94885.38;4839368;29;21034;-62
2021/12/13 11:57:07;;;;;;;31.80;12.05;;;;;;;5.92;82.74;94883.28;4839092;29;20411;-62
2021/12/13 11:59:33;;;;;;;34.65;12.27;;;;;;;6.06;82.05;94877.34;4839252;29;20848;-62
2021/12/13 12:02:28;;;;;;;39.43;16.40;;;;;;;6.24;81.04;94880.34;4840382;29;20054;-62
2021/12/13 12:05:19;;;;;;;36.75;11.85;;;;;;;6.08;82.19;94875.03;4838053;29;20705;-62
2021/12/13 12:08:08;;;;;;;38.20;14.88;;;;;;;6.57;80.45;94866.09;4839406;29;20050;-62
2021/12/13 12:11:12;;;;;;;41.83;16.90;;;;;;;6.91;79.86;94868.91;4837342;29;20538;-62
2021/12/13 12:14:01;;;;;;;26.95;11.30;;;;;;;6.14;80.92;94874.34;4838758;29;20045;-62
2021/12/13 12:16:29;;;;;;;25.30;10.57;;;;;;;5.89;82.69;94868.44;4839593;29;20062;-62
2021/12/13 12:18:56;;;;;;;23.75;10.70;;;;;;;6.31;82.42;94866.84;4839875;29;20057;-62
2021/12/13 12:21:45;;;;;;;19.52;8.98;;;;;;;6.57;81.65;94855.94;4837614;29;20050;-62
2021/12/13 12:24:20;;;;;;;22.95;9.85;;;;;;;6.76;80.74;94860.53;4839640;29;20049;-62